New Sweden, Texas
Current Conditions -  °F | °C
As of 11:55 PM on Thursday 30 Oct 2014 (Local Time) from KEDC Reporting Station
Overcast Overcast  
Wind Chill: 68°   Ceiling: 8500
Heat Index: 68°   Visibility: 10mi
Dew Point: 57°   Wind: 3mph
Humidity: 68%   Direction: 30°NNE
Pressure: 30.13"   Gusts: NA
Location:  30.352°N, 97.5205°W
Report Text: KEDC 310455Z AUTO 03003KT 10SM OVC085 20/14 A3013 RMK AO2
Loading
Personal Weather Stations






























Interactive Weather Map
Tropical Storm Tracking
New forecast layout! Learn more

10-Day Weather Forecast

Advertisements
Track Severe Weather on mobile